Time;durP1;ratioP1;P1;durP2;ratioP2;P2;SDS_P1;SDS_P2;PMS_P1;PMS_P2;Temp;Humidity;BMP_temperature;BMP_pressure;BME280_temperature;BME280_humidity;BME280_pressure;Samples;Min_cycle;Max_cycle;Signal;HPM_P1;HPM_P2
2023/10/04 00:02:20;;;;;;;11.00;1.15;;;;;;;16.17;88.81;102210.69;7361942;19;20685;-67
2023/10/04 00:04:47;;;;;;;11.13;0.90;;;;;;;16.19;88.81;102203.41;7360429;19;21115;-65
2023/10/04 00:07:14;;;;;;;8.25;0.95;;;;;;;16.14;88.24;102216.31;7361845;19;20010;-65
2023/10/04 00:09:41;;;;;;;6.78;1.08;;;;;;;16.08;87.88;102219.59;7360110;19;20027;-66
2023/10/04 00:12:09;;;;;;;10.98;1.00;;;;;;;16.04;88.17;102222.72;7360793;19;20498;-67
2023/10/04 00:14:36;;;;;;;7.40;1.08;;;;;;;16.04;89.04;102218.22;7360329;19;21835;-68
2023/10/04 00:17:03;;;;;;;6.50;0.98;;;;;;;16.07;89.10;102217.91;7363328;19;20607;-67
2023/10/04 00:19:32;;;;;;;8.32;0.73;;;;;;;16.03;88.86;102221.88;7360458;19;20015;-68
2023/10/04 00:21:59;;;;;;;11.13;0.95;;;;;;;16.03;89.29;102215.72;7357863;19;20095;-66
2023/10/04 00:24:26;;;;;;;12.70;0.60;;;;;;;16.01;88.39;102225.66;7357400;19;20014;-66
2023/10/04 00:26:53;;;;;;;10.45;1.10;;;;;;;15.94;88.77;102222.81;7360623;19;20014;-66
2023/10/04 00:29:20;;;;;;;11.07;0.90;;;;;;;15.91;88.56;102223.09;7358536;19;20717;-67
2023/10/04 00:31:47;;;;;;;14.43;1.83;;;;;;;15.91;89.52;102230.22;7361796;19;20039;-66
2023/10/04 00:34:14;;;;;;;7.22;0.60;;;;;;;15.93;89.76;102229.09;7358402;19;20478;-67
2023/10/04 00:36:43;;;;;;;8.15;0.90;;;;;;;15.90;89.48;102232.03;7359748;19;20018;-65
2023/10/04 00:39:13;;;;;;;8.05;0.90;;;;;;;15.88;89.17;102233.19;7359347;19;20018;-66
2023/10/04 00:41:40;;;;;;;13.43;0.90;;;;;;;15.85;89.12;102230.84;7360148;19;20010;-67
2023/10/04 00:44:10;;;;;;;13.25;1.00;;;;;;;15.75;89.42;102233.56;7358089;19;20131;-65
2023/10/04 00:46:41;;;;;;;11.20;2.10;;;;;;;15.72;90.51;102237.34;7355614;19;20014;-65
2023/10/04 00:49:09;;;;;;;9.13;0.80;;;;;;;15.72;91.38;102239.19;7357213;19;20015;-67
2023/10/04 00:51:36;;;;;;;16.17;1.13;;;;;;;15.73;91.18;102236.38;7361257;19;20510;-66
2023/10/04 00:54:08;;;;;;;6.60;1.23;;;;;;;15.72;90.83;102229.41;7358813;19;20914;-65
2023/10/04 00:56:38;;;;;;;11.18;2.65;;;;;;;15.71;90.70;102230.38;7360709;19;20933;-65
2023/10/04 00:59:07;;;;;;;10.90;1.27;;;;;;;15.68;90.41;102230.69;7356716;19;20453;-66
2023/10/04 01:01:34;;;;;;;8.65;0.90;;;;;;;15.65;90.36;102230.97;7359526;19;20659;-66
2023/10/04 01:04:02;;;;;;;12.35;1.30;;;;;;;15.66;91.90;102237.97;7361215;19;20027;-66
2023/10/04 01:06:30;;;;;;;11.52;0.82;;;;;;;15.67;92.12;102234.31;7360414;19;20026;-67
2023/10/04 01:08:58;;;;;;;14.35;1.02;;;;;;;15.68;91.08;102238.66;7359337;19;20456;-67
2023/10/04 01:11:25;;;;;;;9.75;1.00;;;;;;;15.65;90.68;102230.97;7357689;19;20014;-66
2023/10/04 01:14:06;;;;;;;9.30;0.80;;;;;;;15.61;90.62;102228.78;7355580;19;20050;-66
2023/10/04 01:16:35;;;;;;;9.48;1.35;;;;;;;15.61;91.21;102226.13;7356673;19;20050;-67
2023/10/04 01:19:03;;;;;;;14.18;1.08;;;;;;;15.60;90.70;102221.78;7360226;19;20969;-66
2023/10/04 01:21:31;;;;;;;9.43;0.90;;;;;;;15.58;92.02;102207.88;7360272;19;20015;-66
2023/10/04 01:23:58;;;;;;;14.00;2.00;;;;;;;15.58;92.78;102214.00;7354152;19;20532;-66
2023/10/04 01:26:28;;;;;;;12.93;1.27;;;;;;;15.56;91.55;102209.81;7354878;19;20518;-66
2023/10/04 01:28:55;;;;;;;7.00;0.90;;;;;;;15.55;91.40;102210.81;7355991;19;20843;-66
2023/10/04 01:31:22;;;;;;;14.93;1.10;;;;;;;15.54;91.32;102215.31;7358174;19;20014;-66
2023/10/04 01:33:49;;;;;;;11.15;0.85;;;;;;;15.49;91.60;102222.00;7357202;19;20614;-67
2023/10/04 01:36:16;;;;;;;10.07;1.15;;;;;;;15.48;91.57;102212.38;7356452;19;20024;-66
2023/10/04 01:38:43;;;;;;;15.18;1.23;;;;;;;15.49;92.88;102208.75;7356121;19;20337;-66
2023/10/04 01:41:10;;;;;;;13.73;1.23;;;;;;;15.49;92.73;102206.09;7357492;19;20018;-66
2023/10/04 01:43:38;;;;;;;13.32;0.98;;;;;;;15.48;92.31;102217.69;7354847;19;20018;-66
2023/10/04 01:46:05;;;;;;;11.07;1.27;;;;;;;15.47;92.21;102216.00;7358517;19;20010;-66
2023/10/04 01:48:36;;;;;;;8.80;0.88;;;;;;;15.43;91.58;102220.78;7356415;19;20198;-67
2023/10/04 01:51:04;;;;;;;10.02;0.85;;;;;;;15.36;91.75;102222.34;7360055;19;20778;-66
2023/10/04 01:53:35;;;;;;;8.63;0.80;;;;;;;15.35;93.60;102226.81;7356028;19;20007;-66
2023/10/04 01:56:03;;;;;;;6.82;0.70;;;;;;;15.32;92.54;102221.84;7353176;19;20626;-65
2023/10/04 01:58:31;;;;;;;10.57;1.40;;;;;;;15.28;92.31;102211.69;7353473;19;20019;-65
2023/10/04 02:01:00;;;;;;;9.70;0.88;;;;;;;15.28;92.65;102206.38;7358528;19;20491;-66
2023/10/04 02:03:28;;;;;;;11.38;1.00;;;;;;;15.25;92.80;102198.69;7357849;19;20021;-65
2023/10/04 02:05:58;;;;;;;11.77;0.95;;;;;;;15.24;93.35;102194.38;7354696;19;20076;-66
2023/10/04 02:08:26;;;;;;;12.32;0.60;;;;;;;15.21;92.84;102192.03;7356671;19;20099;-66
2023/10/04 02:10:54;;;;;;;11.32;0.90;;;;;;;15.16;92.64;102194.28;7357668;19;20026;-67
2023/10/04 02:13:22;;;;;;;14.63;0.90;;;;;;;15.11;92.76;102185.94;7355998;19;20184;-66
2023/10/04 02:15:52;;;;;;;15.55;1.15;;;;;;;15.11;93.33;102194.75;7355698;19;20482;-66
2023/10/04 02:18:20;;;;;;;11.95;0.90;;;;;;;15.12;93.06;102196.41;7356569;19;20010;-66
2023/10/04 02:20:53;;;;;;;12.48;0.80;;;;;;;15.12;92.91;102198.22;7358797;19;20018;-65
2023/10/04 02:23:21;;;;;;;11.70;1.02;;;;;;;15.12;94.75;102196.41;7356780;19;20015;-66
2023/10/04 02:25:48;;;;;;;8.95;0.82;;;;;;;15.14;94.00;102189.13;7351256;19;20490;-65
2023/10/04 02:28:22;;;;;;;13.30;1.15;;;;;;;15.13;93.74;102176.03;7356364;19;20041;-66
2023/10/04 02:30:54;;;;;;;8.85;0.70;;;;;;;15.10;93.22;102177.16;7356516;19;20069;-66
2023/10/04 02:33:22;;;;;;;9.52;0.80;;;;;;;15.08;93.15;102187.09;7353096;19;20018;-67
2023/10/04 02:35:50;;;;;;;11.35;0.70;;;;;;;15.09;93.73;102186.09;7351071;19;20014;-66
2023/10/04 02:38:31;;;;;;;12.43;1.05;;;;;;;15.08;93.39;102179.13;7357066;19;20374;-65
2023/10/04 02:41:00;;;;;;;13.07;1.05;;;;;;;15.11;94.96;102181.47;7354834;19;20010;-65
2023/10/04 02:43:27;;;;;;;8.93;0.93;;;;;;;15.09;93.99;102186.09;7354937;19;20394;-66
2023/10/04 02:45:54;;;;;;;13.30;1.10;;;;;;;15.08;93.71;102181.78;7356402;19;20363;-66
2023/10/04 02:48:23;;;;;;;10.63;0.70;;;;;;;15.11;93.32;102185.94;7355160;19;20014;-66
2023/10/04 02:50:50;;;;;;;8.55;1.13;;;;;;;15.12;93.25;102188.47;7358223;19;20022;-66
2023/10/04 02:53:19;;;;;;;12.35;0.90;;;;;;;15.09;93.16;102193.19;7356343;19;20074;-65
2023/10/04 02:55:47;;;;;;;13.23;1.45;;;;;;;15.03;93.20;102186.69;7354489;19;20061;-65
2023/10/04 02:58:16;;;;;;;11.43;0.80;;;;;;;15.02;93.82;102192.16;7354984;19;20351;-66
2023/10/04 03:00:49;;;;;;;11.20;1.52;;;;;;;14.96;93.61;102197.06;7355979;19;20031;-66
2023/10/04 03:03:22;;;;;;;13.57;0.93;;;;;;;14.94;93.81;102199.00;7355832;19;20015;-66
2023/10/04 03:05:51;;;;;;;10.27;0.50;;;;;;;14.97;94.09;102200.53;7354003;19;20391;-65
2023/10/04 03:08:18;;;;;;;8.38;0.70;;;;;;;14.96;93.93;102199.69;7354550;19;20026;-65
2023/10/04 03:10:50;;;;;;;14.05;1.40;;;;;;;14.97;94.25;102184.63;7352959;19;20018;-66
2023/10/04 03:13:25;;;;;;;8.80;0.60;;;;;;;14.89;93.62;102195.13;7346479;19;20019;-66
2023/10/04 03:15:53;;;;;;;6.53;0.60;;;;;;;14.86;93.87;102196.28;7355556;19;20018;-66
2023/10/04 03:18:25;;;;;;;14.48;1.40;;;;;;;14.84;94.53;102189.44;7355968;19;20097;-66
2023/10/04 03:21:10;;;;;;;10.70;0.63;;;;;;;14.83;94.17;102195.75;7357346;19;20023;-66
2023/10/04 03:23:40;;;;;;;9.55;0.70;;;;;;;14.79;94.71;102205.78;7353367;19;20015;-66
2023/10/04 03:26:12;;;;;;;16.60;1.13;;;;;;;14.84;95.31;102200.03;7350099;19;20031;-65
2023/10/04 03:28:40;;;;;;;10.60;1.25;;;;;;;14.87;95.11;102203.25;7350564;19;20338;-65
2023/10/04 03:31:13;;;;;;;6.43;0.70;;;;;;;14.89;94.78;102206.56;7354802;19;20098;-67
2023/10/04 03:33:49;;;;;;;9.63;0.70;;;;;;;14.84;93.85;102202.69;7352586;19;20019;-67
2023/10/04 03:36:18;;;;;;;16.10;0.80;;;;;;;14.79;93.66;102204.94;7353982;19;20033;-68
2023/10/04 03:38:45;;;;;;;13.10;0.80;;;;;;;14.77;94.36;102206.91;7352065;19;20031;-67
2023/10/04 03:41:12;;;;;;;4.60;1.13;;;;;;;14.77;94.78;102204.25;7353992;19;20048;-67
2023/10/04 03:43:40;;;;;;;8.95;0.82;;;;;;;14.77;95.16;102199.81;7351477;19;20338;-66
2023/10/04 03:46:19;;;;;;;9.57;0.70;;;;;;;14.78;94.48;102205.94;7353548;19;20045;-67
2023/10/04 03:48:49;;;;;;;8.57;0.60;;;;;;;14.70;94.44;102198.69;7353404;19;20497;-66
2023/10/04 03:51:21;;;;;;;10.77;1.05;;;;;;;14.68;94.49;102202.50;7355138;19;20015;-67
2023/10/04 03:53:53;;;;;;;11.50;0.60;;;;;;;14.68;94.28;102208.59;7353399;19;20496;-66
2023/10/04 03:56:22;;;;;;;10.50;0.83;;;;;;;14.68;94.83;102200.66;7354274;19;20056;-69
2023/10/04 03:58:49;;;;;;;12.93;0.82;;;;;;;14.72;95.57;102207.34;7347808;19;20945;-67
2023/10/04 04:01:16;;;;;;;8.85;1.25;;;;;;;14.74;95.17;102209.84;7355983;19;20015;-67
2023/10/04 04:03:44;;;;;;;9.80;0.77;;;;;;;14.74;95.31;102204.53;7353021;19;20022;-68
2023/10/04 04:06:11;;;;;;;6.63;0.60;;;;;;;14.72;94.91;102194.09;7354875;19;20500;-70
2023/10/04 04:08:39;;;;;;;11.45;0.90;;;;;;;14.71;94.85;102200.38;7351556;19;20645;-66
2023/10/04 04:11:06;;;;;;;9.05;0.77;;;;;;;14.72;94.55;102201.22;7354162;19;20018;-67
2023/10/04 04:13:36;;;;;;;12.27;2.45;;;;;;;14.72;95.06;102198.56;7352124;19;20838;-66
2023/10/04 04:16:09;;;;;;;8.77;0.70;;;;;;;14.63;94.64;102197.59;7353812;19;20106;-66
2023/10/04 04:18:37;;;;;;;10.50;1.25;;;;;;;14.56;94.61;102199.19;7351785;19;20014;-67
2023/10/04 04:21:05;;;;;;;7.20;0.60;;;;;;;14.54;95.41;102190.53;7357659;19;20133;-67
2023/10/04 04:23:32;;;;;;;10.15;0.70;;;;;;;14.58;95.47;102189.25;7357359;19;20102;-66
2023/10/04 04:26:00;;;;;;;5.55;0.50;;;;;;;14.57;95.65;102192.91;7358311;19;20022;-67
2023/10/04 04:28:29;;;;;;;8.85;0.57;;;;;;;14.58;95.36;102188.44;7354645;19;20014;-68
2023/10/04 04:30:58;;;;;;;9.45;0.77;;;;;;;14.63;96.27;102183.56;7359514;19;20123;-67
2023/10/04 04:33:28;;;;;;;11.15;2.78;;;;;;;14.67;95.94;102185.75;7360641;19;20014;-67
2023/10/04 04:36:04;;;;;;;7.72;0.90;;;;;;;14.66;95.46;102189.38;7359060;19;20382;-67
2023/10/04 04:38:37;;;;;;;9.82;1.60;;;;;;;14.63;94.57;102188.84;7360239;19;20026;-66
2023/10/04 04:41:12;;;;;;;9.73;0.60;;;;;;;14.57;94.78;102184.97;7361157;19;20022;-67
2023/10/04 04:43:40;;;;;;;7.25;0.60;;;;;;;14.56;94.89;102183.28;7357742;19;21922;-67
2023/10/04 04:46:17;;;;;;;13.48;0.88;;;;;;;14.58;95.88;102180.50;7362118;19;20118;-68
2023/10/04 04:48:45;;;;;;;7.57;0.60;;;;;;;14.61;96.44;102182.84;7360461;19;20007;-67
2023/10/04 04:51:15;;;;;;;11.90;1.77;;;;;;;14.61;95.17;102188.97;7360237;19;20134;-67
2023/10/04 04:53:43;;;;;;;8.02;0.95;;;;;;;14.62;94.81;102192.47;7357525;19;20641;-67
2023/10/04 04:56:14;;;;;;;5.47;0.50;;;;;;;14.64;95.05;102195.78;7357635;19;20014;-67
2023/10/04 04:58:44;;;;;;;7.95;0.50;;;;;;;14.66;95.12;102193.84;7359207;19;20014;-67
2023/10/04 05:01:11;;;;;;;7.95;0.47;;;;;;;14.64;94.79;102193.97;7357860;19;20520;-67
2023/10/04 05:03:42;;;;;;;9.32;0.93;;;;;;;14.65;95.70;102194.81;7358792;19;20051;-67
2023/10/04 05:06:13;;;;;;;15.57;0.90;;;;;;;14.63;95.74;102194.16;7360224;19;20014;-69
2023/10/04 05:08:41;;;;;;;8.75;0.60;;;;;;;14.62;95.23;102209.22;7358890;19;20614;-68
2023/10/04 05:11:09;;;;;;;8.85;0.70;;;;;;;14.61;95.04;102204.03;7360061;19;20106;-67
2023/10/04 05:13:36;;;;;;;12.23;1.10;;;;;;;14.58;95.21;102194.56;7353272;19;20558;-67
2023/10/04 05:16:07;;;;;;;9.48;1.25;;;;;;;14.61;94.49;102201.41;7358076;19;20054;-68
2023/10/04 05:18:34;;;;;;;9.15;0.70;;;;;;;14.58;94.35;102194.56;7355257;19;20530;-66
2023/10/04 05:21:02;;;;;;;8.10;0.50;;;;;;;14.60;95.56;102200.56;7357084;19;20003;-67
2023/10/04 05:23:29;;;;;;;9.35;0.50;;;;;;;14.61;95.43;102201.41;7359912;19;20503;-67
2023/10/04 05:25:57;;;;;;;5.43;0.43;;;;;;;14.60;94.86;102200.56;7359700;19;20044;-67
2023/10/04 05:28:25;;;;;;;12.13;0.75;;;;;;;14.61;94.70;102198.75;7351932;19;20102;-68
2023/10/04 05:30:52;;;;;;;7.68;0.57;;;;;;;14.57;94.55;102198.22;7356435;19;20018;-67
2023/10/04 05:33:22;;;;;;;7.40;0.70;;;;;;;14.50;94.42;102197.09;7356577;19;20020;-67
2023/10/04 05:35:53;;;;;;;6.22;0.50;;;;;;;14.49;95.00;102200.72;7357383;19;20018;-68
2023/10/04 05:38:22;;;;;;;9.65;1.05;;;;;;;14.49;95.64;102196.28;7358154;19;20652;-66
2023/10/04 05:40:50;;;;;;;15.10;0.82;;;;;;;14.52;95.64;102203.94;7357079;19;20853;-67
2023/10/04 05:43:18;;;;;;;9.18;0.60;;;;;;;14.51;95.47;102204.06;7354670;19;21924;-67
2023/10/04 05:45:47;;;;;;;9.82;0.98;;;;;;;14.47;95.23;102200.91;7357307;19;20793;-69
2023/10/04 05:48:19;;;;;;;9.13;0.60;;;;;;;14.46;95.05;102203.69;7356224;19;20489;-67
2023/10/04 05:50:50;;;;;;;9.25;0.65;;;;;;;14.44;95.02;102195.88;7359027;19;20689;-67
2023/10/04 05:53:21;;;;;;;13.82;0.88;;;;;;;14.42;96.12;102197.00;7358693;19;20026;-68
2023/10/04 05:55:49;;;;;;;6.07;0.52;;;;;;;14.45;96.90;102194.91;7357487;19;20698;-68
2023/10/04 05:58:17;;;;;;;9.27;0.85;;;;;;;14.45;96.29;102199.34;7353496;19;20026;-69
2023/10/04 06:00:51;;;;;;;7.32;0.57;;;;;;;14.43;95.36;102201.28;7354918;19;20872;-67
2023/10/04 06:03:20;;;;;;;7.63;0.70;;;;;;;14.41;95.63;102193.50;7358267;19;21016;-67
2023/10/04 06:05:50;;;;;;;7.95;0.60;;;;;;;14.40;95.56;102191.00;7356943;19;20082;-68
2023/10/04 06:08:19;;;;;;;10.07;0.90;;;;;;;14.40;95.79;102186.53;7356186;19;20311;-66
2023/10/04 06:10:53;;;;;;;15.40;0.88;;;;;;;14.43;96.34;102185.41;7361830;19;20444;-67
2023/10/04 06:13:25;;;;;;;11.55;1.75;;;;;;;14.43;95.88;102191.53;7356193;19;20023;-67
2023/10/04 06:15:54;;;;;;;10.02;0.57;;;;;;;14.44;95.40;102187.09;7355801;19;20021;-69
2023/10/04 06:18:26;;;;;;;7.10;0.55;;;;;;;14.40;95.33;102188.34;7356353;19;20018;-68
2023/10/04 06:20:53;;;;;;;6.18;0.47;;;;;;;14.35;95.12;102187.91;7357969;19;20037;-67
2023/10/04 06:23:21;;;;;;;8.73;0.90;;;;;;;14.37;95.49;102178.06;7356304;19;20090;-68
2023/10/04 06:25:52;;;;;;;14.70;0.85;;;;;;;14.44;96.45;102189.72;7356466;19;20065;-67
2023/10/04 06:28:19;;;;;;;10.48;0.70;;;;;;;14.42;95.78;102189.06;7352717;19;20022;-68
2023/10/04 06:30:52;;;;;;;9.45;0.60;;;;;;;14.43;95.47;102193.34;7351592;19;20058;-66
2023/10/04 06:33:19;;;;;;;10.60;0.80;;;;;;;14.39;95.05;102200.75;7356641;19;20950;-68
2023/10/04 06:35:47;;;;;;;8.27;0.70;;;;;;;14.39;95.27;102189.31;7354845;19;20018;-67
2023/10/04 06:38:14;;;;;;;15.10;1.23;;;;;;;14.42;95.34;102194.34;7357338;19;20050;-67
2023/10/04 06:40:42;;;;;;;9.63;1.38;;;;;;;14.39;95.67;102197.28;7356451;19;20314;-67
2023/10/04 06:43:10;;;;;;;9.23;0.90;;;;;;;14.35;95.64;102203.81;7351656;19;20328;-68
2023/10/04 06:45:39;;;;;;;11.18;0.80;;;;;;;14.37;95.75;102208.03;7352433;19;20077;-68
2023/10/04 06:48:07;;;;;;;7.07;1.02;;;;;;;14.43;96.28;102218.03;7352881;19;20018;-67
2023/10/04 06:50:38;;;;;;;12.73;0.85;;;;;;;14.46;96.03;102223.06;7355885;19;20408;-68
2023/10/04 06:53:09;;;;;;;12.80;0.90;;;;;;;14.41;95.86;102221.81;7355305;19;20014;-67
2023/10/04 06:55:37;;;;;;;7.03;1.08;;;;;;;14.45;98.86;102217.88;7355721;19;20363;-68
2023/10/04 06:58:06;;;;;;;12.20;1.58;;;;;;;14.54;100.00;102222.31;7353178;19;20578;-68
2023/10/04 07:00:36;;;;;;;13.95;0.70;;;;;;;14.45;97.99;102223.19;7355274;19;20699;-67
2023/10/04 07:03:04;;;;;;;9.98;0.77;;;;;;;14.45;97.87;102225.84;7357666;19;20023;-67
2023/10/04 07:05:35;;;;;;;10.48;0.65;;;;;;;14.45;96.76;102229.31;7355518;19;20017;-67
2023/10/04 07:08:05;;;;;;;11.93;0.60;;;;;;;14.41;95.76;102222.66;7355244;19;20025;-68
2023/10/04 07:10:34;;;;;;;9.32;1.00;;;;;;;14.41;96.50;102225.28;7353933;19;20245;-66
2023/10/04 07:13:02;;;;;;;13.40;1.27;;;;;;;14.50;97.50;102234.19;7346239;19;20025;-70
2023/10/04 07:15:35;;;;;;;12.15;1.45;;;;;;;14.58;96.38;102228.19;7349559;19;20019;-66
2023/10/04 07:18:06;;;;;;;14.23;0.93;;;;;;;14.63;95.60;102236.53;7353063;19;20147;-67
2023/10/04 07:20:34;;;;;;;7.78;0.60;;;;;;;14.60;95.18;102227.03;7350446;19;20452;-69
2023/10/04 07:23:05;;;;;;;13.38;1.08;;;;;;;14.59;95.79;102240.44;7345570;19;20055;-67
2023/10/04 07:25:34;;;;;;;10.55;1.52;;;;;;;14.60;95.49;102235.00;7349837;19;20069;-67
2023/10/04 07:28:04;;;;;;;15.73;1.38;;;;;;;14.53;94.73;102237.38;7347579;19;20458;-68
2023/10/04 07:30:33;;;;;;;8.73;0.73;;;;;;;14.54;94.41;102236.41;7341045;19;21708;-66
2023/10/04 07:33:01;;;;;;;10.88;0.68;;;;;;;14.57;94.62;102234.47;7351974;19;20015;-69
2023/10/04 07:35:28;;;;;;;11.18;0.80;;;;;;;14.61;95.11;102231.38;7354789;19;20630;-67
2023/10/04 07:37:57;;;;;;;8.27;0.70;;;;;;;14.65;94.70;102224.81;7355348;19;20078;-67
2023/10/04 07:40:29;;;;;;;10.63;0.63;;;;;;;14.66;94.20;102231.78;7355241;19;20014;-67
2023/10/04 07:42:57;;;;;;;13.02;1.10;;;;;;;14.69;93.88;102231.47;7353654;19;20015;-69
2023/10/04 07:45:27;;;;;;;11.95;1.10;;;;;;;14.69;94.16;102242.06;7354407;19;20014;-67
2023/10/04 07:47:58;;;;;;;6.80;0.60;;;;;;;14.77;95.46;102233.41;7353878;19;20346;-67
2023/10/04 07:50:26;;;;;;;12.77;0.80;;;;;;;14.80;94.56;102231.31;7354116;19;20025;-67
2023/10/04 07:52:55;;;;;;;7.60;0.82;;;;;;;14.86;95.01;102233.38;7354952;19;20345;-67
2023/10/04 07:55:25;;;;;;;10.63;0.90;;;;;;;14.90;94.01;102226.78;7356228;19;20015;-67
2023/10/04 07:58:06;;;;;;;14.90;1.00;;;;;;;14.92;93.57;102237.25;7359885;19;20324;-70
2023/10/04 08:00:37;;;;;;;14.55;1.23;;;;;;;14.93;93.83;102238.94;7360987;19;20537;-67
2023/10/04 08:03:06;;;;;;;12.05;0.93;;;;;;;14.93;93.13;102231.78;7362187;19;20011;-68
2023/10/04 08:05:35;;;;;;;17.05;1.20;;;;;;;14.96;93.56;102231.50;7362956;19;20074;-68
2023/10/04 08:08:04;;;;;;;8.63;0.88;;;;;;;14.99;93.39;102231.22;7364759;19;20027;-67
2023/10/04 08:10:36;;;;;;;10.25;0.75;;;;;;;15.04;93.32;102235.22;7361361;19;20025;-68
2023/10/04 08:13:05;;;;;;;15.77;1.00;;;;;;;15.11;94.16;102225.72;7360815;19;20015;-67
2023/10/04 08:15:37;;;;;;;12.95;1.02;;;;;;;15.19;94.02;102225.81;7360290;19;20019;-67
2023/10/04 08:18:05;;;;;;;13.55;1.58;;;;;;;15.24;93.03;102220.88;7362264;19;20257;-68
2023/10/04 08:20:35;;;;;;;7.60;0.60;;;;;;;15.23;92.15;102222.72;7359812;19;20562;-67
2023/10/04 08:23:02;;;;;;;13.77;0.88;;;;;;;15.17;91.68;102223.31;7356535;19;20015;-67
2023/10/04 08:25:32;;;;;;;17.48;0.65;;;;;;;15.17;91.69;102225.13;7361691;19;20019;-67
2023/10/04 08:28:00;;;;;;;6.07;0.60;;;;;;;15.23;93.33;102228.03;7359992;19;20014;-66
2023/10/04 08:30:30;;;;;;;11.32;1.60;;;;;;;15.25;92.35;102236.66;7358446;19;20021;-66
2023/10/04 08:32:59;;;;;;;17.02;0.70;;;;;;;15.25;92.02;102230.50;7359388;19;20701;-67
2023/10/04 08:35:28;;;;;;;6.32;0.68;;;;;;;15.35;92.22;102239.25;7359169;19;20597;-67
2023/10/04 08:37:58;;;;;;;5.57;0.50;;;;;;;15.40;91.71;102232.50;7361620;19;20027;-66
2023/10/04 08:40:27;;;;;;;15.32;1.08;;;;;;;15.47;91.90;102247.84;7363893;19;20606;-66
2023/10/04 08:42:55;;;;;;;6.22;0.73;;;;;;;15.50;92.27;102243.06;7357799;19;20011;-67
2023/10/04 08:45:24;;;;;;;4.28;0.60;;;;;;;15.54;91.28;102233.88;7360607;19;20014;-66
2023/10/04 08:47:57;;;;;;;6.18;0.60;;;;;;;15.57;90.51;102238.03;7358289;19;20010;-67
2023/10/04 08:50:36;;;;;;;8.80;0.88;;;;;;;15.60;90.38;102229.75;7359158;19;20361;-67
2023/10/04 08:53:38;;;;;;;11.35;2.45;;;;;;;15.68;90.29;102236.00;7357632;19;20841;-67
2023/10/04 08:56:16;;;;;;;6.40;0.55;;;;;;;15.68;89.11;102232.50;7355093;19;20006;-67
2023/10/04 08:58:44;;;;;;;10.52;0.70;;;;;;;15.70;89.85;102234.00;7354292;19;20010;-67
2023/10/04 09:01:13;;;;;;;7.40;0.77;;;;;;;15.75;89.85;102242.34;7360695;19;20577;-67
2023/10/04 09:03:42;;;;;;;8.32;0.63;;;;;;;15.81;89.52;102238.25;7360378;19;20044;-68
2023/10/04 09:06:11;;;;;;;9.25;0.60;;;;;;;15.86;89.63;102238.63;7357969;19;20602;-66
2023/10/04 09:08:41;;;;;;;8.40;0.70;;;;;;;15.88;89.14;102235.84;7359821;19;20011;-67
2023/10/04 09:11:12;;;;;;;2.85;0.50;;;;;;;15.87;88.44;102227.03;7358504;19;20479;-67
2023/10/04 09:13:47;;;;;;;10.65;1.20;;;;;;;15.94;89.17;102229.94;7354989;19;20106;-68
2023/10/04 09:16:23;;;;;;;9.68;0.40;;;;;;;16.01;88.41;102231.81;7359487;19;20011;-67
2023/10/04 09:19:14;;;;;;;8.25;0.50;;;;;;;16.03;87.76;102229.00;7359670;19;20002;-67
2023/10/04 09:21:41;;;;;;;5.72;0.80;;;;;;;16.01;87.48;102233.63;7359915;19;20037;-68
2023/10/04 09:24:13;;;;;;;9.80;0.70;;;;;;;16.03;88.00;102232.50;7357395;19;20839;-67
2023/10/04 09:27:01;;;;;;;10.77;0.60;;;;;;;16.01;87.17;102229.16;7359839;19;20351;-67
2023/10/04 09:29:37;;;;;;;7.13;0.32;;;;;;;16.03;86.90;102227.19;7357040;19;20097;-66
2023/10/04 09:32:05;;;;;;;12.80;0.50;;;;;;;16.06;86.81;102226.03;7354741;19;21881;-68
2023/10/04 09:34:33;;;;;;;7.93;0.60;;;;;;;16.11;87.17;102235.19;7357436;19;20014;-67
2023/10/04 09:37:00;;;;;;;10.60;1.13;;;;;;;16.14;86.91;102234.91;7354765;19;20089;-68
2023/10/04 09:39:31;;;;;;;6.60;0.90;;;;;;;16.13;86.52;102227.94;7359139;19;20138;-67
2023/10/04 09:42:03;;;;;;;5.30;0.40;;;;;;;16.14;86.15;102223.44;7361037;19;20026;-69
2023/10/04 09:44:31;;;;;;;7.68;0.50;;;;;;;16.22;87.28;102227.00;7359470;19;20018;-66
2023/10/04 09:47:00;;;;;;;6.63;0.40;;;;;;;16.30;87.03;102218.25;7359027;19;20094;-66
2023/10/04 09:49:31;;;;;;;7.50;0.50;;;;;;;16.38;86.91;102218.31;7355742;19;20019;-66
2023/10/04 09:52:12;;;;;;;11.32;0.77;;;;;;;16.43;86.63;102223.97;7359308;19;20081;-67
2023/10/04 09:54:40;;;;;;;8.45;1.13;;;;;;;16.49;86.69;102226.03;7356507;19;20056;-68
2023/10/04 09:57:08;;;;;;;6.15;0.57;;;;;;;16.46;85.28;102220.16;7356003;19;20054;-68
2023/10/04 09:59:37;;;;;;;6.90;0.63;;;;;;;16.49;85.79;102223.34;7355775;19;20044;-67
2023/10/04 10:02:07;;;;;;;9.13;0.50;;;;;;;16.53;85.40;102218.56;7358214;19;20013;-66
2023/10/04 10:05:01;;;;;;;6.60;0.65;;;;;;;16.60;85.25;102224.94;7336509;19;20006;-67
2023/10/04 10:07:41;;;;;;;6.95;0.50;;;;;;;16.66;85.52;102224.28;7352732;19;20056;-66
2023/10/04 10:10:16;;;;;;;8.73;0.45;;;;;;;16.70;84.87;102227.50;7347672;19;20024;-65
2023/10/04 10:12:44;;;;;;;4.28;1.00;;;;;;;16.75;85.25;102234.00;7357823;19;20006;-67
2023/10/04 10:15:14;;;;;;;9.85;0.77;;;;;;;16.77;83.70;102237.31;7355572;19;20094;-67
2023/10/04 10:17:43;;;;;;;6.43;0.75;;;;;;;16.79;84.18;102238.00;7356563;19;20014;-68
2023/10/04 10:20:11;;;;;;;9.02;0.70;;;;;;;16.83;84.60;102231.38;7358391;19;20031;-67
2023/10/04 10:23:00;;;;;;;9.05;0.88;;;;;;;16.86;83.80;102230.25;7350653;19;20010;-68
2023/10/04 10:25:29;;;;;;;11.63;0.95;;;;;;;16.91;83.75;102234.09;7357029;19;20038;-68
2023/10/04 10:27:57;;;;;;;7.55;0.60;;;;;;;16.90;82.68;102226.25;7354381;19;20373;-67
2023/10/04 10:30:30;;;;;;;5.60;0.60;;;;;;;16.99;83.53;102233.28;7358021;19;20015;-67
2023/10/04 10:32:59;;;;;;;6.47;0.43;;;;;;;17.13;85.44;102222.03;7355474;19;20030;-68
2023/10/04 10:35:51;;;;;;;9.55;0.80;;;;;;;17.18;82.77;102219.72;7356521;19;20148;-68
2023/10/04 10:38:45;;;;;;;10.32;0.80;;;;;;;17.24;82.52;102221.72;7358297;19;20062;-66
2023/10/04 10:41:28;;;;;;;5.68;0.50;;;;;;;17.35;82.59;102215.28;7355612;19;20018;-68
2023/10/04 10:44:19;;;;;;;7.93;0.70;;;;;;;17.45;82.03;102223.94;7351370;19;20051;-67
2023/10/04 10:47:14;;;;;;;9.87;0.93;;;;;;;17.53;80.76;102229.28;7356529;19;20103;-67
2023/10/04 10:50:02;;;;;;;6.70;0.60;;;;;;;17.62;80.18;102222.19;7353039;19;20115;-67
2023/10/04 10:52:38;;;;;;;7.13;0.40;;;;;;;17.67;78.04;102223.38;7356921;19;20026;-67
2023/10/04 10:55:18;;;;;;;7.57;0.43;;;;;;;17.73;77.88;102225.34;7357649;19;20022;-67
2023/10/04 10:57:50;;;;;;;3.28;0.50;;;;;;;17.82;75.99;102226.22;7350289;19;20017;-66
2023/10/04 11:02:46;;;;;;;5.30;0.30;;;;;;;17.84;74.63;102217.03;7356437;19;20014;-67
2023/10/04 11:05:16;;;;;;;11.07;1.10;;;;;;;17.88;74.31;102226.34;7355164;19;20018;-68
2023/10/04 11:07:52;;;;;;;7.65;0.40;;;;;;;17.87;71.53;102224.72;7356119;19;20031;-67
2023/10/04 11:10:23;;;;;;;3.05;0.30;;;;;;;17.94;71.83;102214.22;7355512;19;20029;-67
2023/10/04 11:12:53;;;;;;;6.63;0.32;;;;;;;17.95;71.76;102208.72;7355004;19;20114;-67
2023/10/04 11:15:23;;;;;;;6.00;0.52;;;;;;;18.01;72.36;102212.56;7353602;19;20034;-68
2023/10/04 11:17:54;;;;;;;4.32;0.40;;;;;;;18.04;72.78;102211.38;7354589;19;20015;-67
2023/10/04 11:20:21;;;;;;;2.72;0.60;;;;;;;18.09;73.80;102204.53;7354202;19;20011;-68
2023/10/04 11:22:49;;;;;;;7.00;0.55;;;;;;;18.12;72.50;102201.56;7354986;19;20500;-68
2023/10/04 11:25:18;;;;;;;6.63;0.60;;;;;;;18.12;71.04;102198.06;7356029;19;20428;-67
2023/10/04 11:27:48;;;;;;;3.53;0.55;;;;;;;18.09;69.36;102201.03;7354842;19;20014;-67
2023/10/04 11:30:23;;;;;;;4.30;0.40;;;;;;;18.08;68.53;102194.88;7354872;19;20011;-67
2023/10/04 11:32:50;;;;;;;4.75;0.50;;;;;;;18.15;70.54;102192.38;7361514;19;20015;-67
2023/10/04 11:35:21;;;;;;;3.72;0.30;;;;;;;18.21;69.96;102187.22;7357102;19;20054;-66
2023/10/04 11:37:49;;;;;;;5.82;0.98;;;;;;;18.25;68.60;102180.53;7359154;19;20003;-68
2023/10/04 11:40:19;;;;;;;3.22;0.40;;;;;;;18.28;67.56;102176.72;7361186;19;20022;-68